FNSA

Saurimo Airport

Saurimo, Angola
METAR FNSA 181400Z 18004KT CAVOK 27/06 Q1015
Observed Flight Rules
Jul-18 @ 14:00 UTC (18 hours ago) Visual Flight Rules
Wind Visibility Clouds
180° at 4 knots 10,000+ meters
  • Clear skies
Temperatures Readings
Current 27°C / 81°F
Dewpoint 6°C / 43°F
Humidity 26%
Altimeter 29.97" Hg
Pressure 1015 hPa
Elevation 1093
METAR FNSA 181400Z 18004KT CAVOK 27/06 Q1015
Observed Flight Rules
Jul-18 @ 14:00 UTC
(18 hours ago)
VFR
Wind Visibility
180° at 4 knots 10,000+ meters
Clouds
  • Clear skies
Temperature Dewpoint
27°C / 81°F 6°C / 43°F
Humidity Altimeter Pressure
26% 29.97" Hg 1015 hPa